createdAt,value
2019-03-22T00:00:31.633Z,25.36
2019-03-22T00:01:33.561Z,25.27
2019-03-22T00:02:34.952Z,25.19
2019-03-22T00:03:36.360Z,25.21
2019-03-22T00:04:37.773Z,25.21
2019-03-22T00:05:39.169Z,25.22
2019-03-22T00:06:40.548Z,25.33
2019-03-22T00:07:41.941Z,25.29
2019-03-22T00:08:43.317Z,25.35
2019-03-22T00:09:44.822Z,25.41
2019-03-22T00:10:46.209Z,25.38
2019-03-22T00:11:47.737Z,25.42
2019-03-22T00:12:49.150Z,25.33
2019-03-22T00:13:50.567Z,25.41
2019-03-22T00:14:51.987Z,25.29
2019-03-22T00:15:53.383Z,25.25
2019-03-22T00:16:54.764Z,25.30
2019-03-22T00:17:56.163Z,25.37
2019-03-22T00:18:57.549Z,25.36
2019-03-22T00:19:59.144Z,25.28
2019-03-22T00:21:00.533Z,25.35
2019-03-22T00:22:02.037Z,25.38
2019-03-22T00:23:03.427Z,25.35
2019-03-22T00:24:04.964Z,25.34
2019-03-22T00:25:06.543Z,25.42
2019-03-22T00:26:09.044Z,25.40
2019-03-22T00:27:16.372Z,25.45
2019-03-22T00:28:13.833Z,25.43
2019-03-22T00:29:15.305Z,25.33
2019-03-22T00:30:16.704Z,25.36
2019-03-22T00:31:18.080Z,25.38
2019-03-22T00:32:19.460Z,25.42
2019-03-22T00:33:20.846Z,25.50
2019-03-22T00:34:22.336Z,25.45
2019-03-22T00:35:23.725Z,25.45
2019-03-22T00:36:25.124Z,25.38
2019-03-22T00:37:26.597Z,25.47
2019-03-22T00:38:27.997Z,25.47
2019-03-22T00:39:29.381Z,25.51
2019-03-22T00:40:30.885Z,25.48
2019-03-22T00:41:32.379Z,25.38
2019-03-22T00:42:34.232Z,25.49
2019-03-22T00:43:35.618Z,25.41
2019-03-22T00:44:37.006Z,25.52
2019-03-22T00:45:38.493Z,25.52
2019-03-22T00:46:39.888Z,25.54
2019-03-22T00:47:41.264Z,25.50
2019-03-22T00:48:42.668Z,25.36
2019-03-22T00:49:44.050Z,25.41
2019-03-22T00:50:45.456Z,25.43
2019-03-22T00:51:46.849Z,25.40
2019-03-22T00:52:48.246Z,25.41
2019-03-22T00:53:49.759Z,25.43
2019-03-22T00:54:51.212Z,25.40
2019-03-22T00:55:52.588Z,25.38
2019-03-22T00:56:53.982Z,25.41
2019-03-22T00:57:55.372Z,25.46
2019-03-22T00:58:56.869Z,25.46
2019-03-22T00:59:58.344Z,25.35
2019-03-22T01:00:59.797Z,25.42
2019-03-22T01:02:01.218Z,25.39
2019-03-22T01:03:02.591Z,25.40
2019-03-22T01:04:03.992Z,25.40
2019-03-22T01:05:07.297Z,25.39
2019-03-22T01:06:08.968Z,25.42
2019-03-22T01:07:10.371Z,25.43
2019-03-22T01:08:11.883Z,25.43
2019-03-22T01:09:13.386Z,25.48
2019-03-22T01:10:14.865Z,25.35
2019-03-22T01:11:16.297Z,25.33
2019-03-22T01:12:17.804Z,25.30
2019-03-22T01:13:19.345Z,25.34
2019-03-22T01:14:20.863Z,25.41
2019-03-22T01:15:22.340Z,25.37
2019-03-22T01:16:23.835Z,25.33
2019-03-22T01:17:25.414Z,25.31
2019-03-22T01:18:26.931Z,25.42
2019-03-22T01:19:28.421Z,25.35
2019-03-22T01:20:29.858Z,25.31
2019-03-22T01:21:31.372Z,25.33
2019-03-22T01:22:32.923Z,25.40
2019-03-22T01:23:34.424Z,25.31
2019-03-22T01:24:35.902Z,25.25
2019-03-22T01:25:37.334Z,25.24
2019-03-22T01:26:38.944Z,25.23
2019-03-22T01:27:41.656Z,25.26
2019-03-22T01:28:43.167Z,25.25
2019-03-22T01:29:44.645Z,25.23
2019-03-22T01:30:46.185Z,25.26
2019-03-22T01:31:47.800Z,25.17
2019-03-22T01:32:49.408Z,25.33
2019-03-22T01:33:50.932Z,25.27
2019-03-22T01:34:52.465Z,25.35
2019-03-22T01:35:53.945Z,25.34
2019-03-22T01:36:55.345Z,25.29
2019-03-22T01:37:56.787Z,25.30
2019-03-22T01:38:58.237Z,25.34
2019-03-22T01:39:59.643Z,25.40
2019-03-22T01:41:01.084Z,25.38
2019-03-22T01:42:02.812Z,25.40
2019-03-22T01:43:04.260Z,25.45
2019-03-22T01:44:08.972Z,25.40
2019-03-22T01:45:12.505Z,25.43
2019-03-22T01:46:13.934Z,25.38
2019-03-22T01:47:15.370Z,25.33
2019-03-22T01:48:16.805Z,25.39
2019-03-22T01:49:18.244Z,25.45
2019-03-22T01:50:19.784Z,25.44
2019-03-22T01:51:21.210Z,25.52
2019-03-22T01:52:22.651Z,25.47
2019-03-22T01:53:24.080Z,25.49
2019-03-22T01:54:25.508Z,25.44
2019-03-22T01:55:26.945Z,25.52
2019-03-22T01:56:28.353Z,25.48
2019-03-22T01:57:29.737Z,25.36
2019-03-22T01:58:31.185Z,25.47
2019-03-22T01:59:32.561Z,25.48
2019-03-22T02:00:33.973Z,25.44
2019-03-22T02:01:35.378Z,25.47
2019-03-22T02:02:36.737Z,25.37
2019-03-22T02:03:38.236Z,25.48
2019-03-22T02:04:39.607Z,25.47
2019-03-22T02:05:41.007Z,25.38
2019-03-22T02:06:42.486Z,25.51
2019-03-22T02:07:43.886Z,25.42
2019-03-22T02:08:45.297Z,25.40
2019-03-22T02:09:46.697Z,25.42
2019-03-22T02:10:48.107Z,25.51
2019-03-22T02:11:49.561Z,25.49
2019-03-22T02:12:50.982Z,25.38
2019-03-22T02:13:52.402Z,25.31
2019-03-22T02:14:54.043Z,25.39
2019-03-22T02:15:55.455Z,25.44
2019-03-22T02:16:56.860Z,25.42
2019-03-22T02:17:58.263Z,25.39
2019-03-22T02:18:59.776Z,25.41
2019-03-22T02:20:01.285Z,25.46
2019-03-22T02:21:02.795Z,25.42
2019-03-22T02:22:04.300Z,25.49
2019-03-22T02:23:05.676Z,25.41
2019-03-22T02:24:07.074Z,25.48
2019-03-22T02:25:08.638Z,25.50
2019-03-22T02:26:10.037Z,25.42
2019-03-22T02:27:11.441Z,25.42
2019-03-22T02:28:12.935Z,25.37
2019-03-22T02:29:14.512Z,25.49
2019-03-22T02:30:16.766Z,25.49
2019-03-22T02:31:18.187Z,25.42
2019-03-22T02:32:19.570Z,25.44
2019-03-22T02:33:20.945Z,25.32
2019-03-22T02:34:22.330Z,25.25
2019-03-22T02:35:29.174Z,25.32
2019-03-22T02:36:26.992Z,25.32
2019-03-22T02:37:28.389Z,25.31
2019-03-22T02:38:29.763Z,25.25
2019-03-22T02:39:31.362Z,25.34
2019-03-22T02:40:32.765Z,25.26
2019-03-22T02:41:34.151Z,25.28
2019-03-22T02:42:35.533Z,25.42
2019-03-22T02:43:36.921Z,25.40
2019-03-22T02:44:38.306Z,25.36
2019-03-22T02:45:39.691Z,25.36
2019-03-22T02:46:41.069Z,25.37
2019-03-22T02:47:42.476Z,25.50
2019-03-22T02:48:43.932Z,25.39
2019-03-22T02:49:45.326Z,25.43
2019-03-22T02:50:46.802Z,25.40
2019-03-22T02:51:48.299Z,25.43
2019-03-22T02:52:49.777Z,25.41
2019-03-22T02:53:51.164Z,25.38
2019-03-22T02:54:52.645Z,25.34
2019-03-22T02:55:54.202Z,25.32
2019-03-22T02:56:55.754Z,25.38
2019-03-22T02:57:57.157Z,25.33
2019-03-22T02:58:59.461Z,25.28
2019-03-22T03:00:01.097Z,25.38
2019-03-22T03:01:02.466Z,25.32
2019-03-22T03:02:03.962Z,25.25
2019-03-22T03:03:05.345Z,25.27
2019-03-22T03:04:06.748Z,25.26
2019-03-22T03:05:08.750Z,25.25
2019-03-22T03:06:11.160Z,25.21
2019-03-22T03:07:12.567Z,25.24
2019-03-22T03:08:14.076Z,25.39
2019-03-22T03:09:15.450Z,25.37
2019-03-22T03:10:16.877Z,25.33
2019-03-22T03:11:18.211Z,25.42
2019-03-22T03:12:19.607Z,25.32
2019-03-22T03:13:20.981Z,25.39
2019-03-22T03:14:22.481Z,25.40
2019-03-22T03:15:23.997Z,25.45
2019-03-22T03:16:25.413Z,25.46
2019-03-22T03:17:26.935Z,25.47
2019-03-22T03:18:28.439Z,25.32
2019-03-22T03:19:29.809Z,25.42
2019-03-22T03:20:31.234Z,25.46
2019-03-22T03:21:32.588Z,25.38
2019-03-22T03:22:33.986Z,25.37
2019-03-22T03:23:35.374Z,25.40
2019-03-22T03:24:36.974Z,25.44
2019-03-22T03:25:38.384Z,25.50
2019-03-22T03:26:39.904Z,25.42
2019-03-22T03:27:41.353Z,25.33
2019-03-22T03:28:42.835Z,25.37
2019-03-22T03:29:44.310Z,25.47
2019-03-22T03:30:45.785Z,25.39
2019-03-22T03:31:47.165Z,25.45
2019-03-22T03:32:48.584Z,25.45
2019-03-22T03:33:50.108Z,25.48
2019-03-22T03:34:52.567Z,25.54
2019-03-22T03:35:53.977Z,25.46
2019-03-22T03:36:55.393Z,25.45
2019-03-22T03:37:56.798Z,25.53
2019-03-22T03:38:58.199Z,25.48
2019-03-22T03:39:59.573Z,25.51
2019-03-22T03:41:01.070Z,25.54
2019-03-22T03:42:02.654Z,25.48
2019-03-22T03:43:04.037Z,25.48
2019-03-22T03:44:05.417Z,25.35
2019-03-22T03:45:19.334Z,25.43
2019-03-22T03:46:20.740Z,25.49
2019-03-22T03:47:22.151Z,25.42
2019-03-22T03:48:23.557Z,25.34
2019-03-22T03:49:24.980Z,25.40
2019-03-22T03:50:26.320Z,25.49
2019-03-22T03:51:27.715Z,25.44
2019-03-22T03:52:29.093Z,25.48
2019-03-22T03:53:30.491Z,25.48
2019-03-22T03:54:31.882Z,25.51
2019-03-22T03:55:33.284Z,25.54
2019-03-22T03:56:34.802Z,25.53
2019-03-22T03:57:36.221Z,25.53
2019-03-22T03:58:51.766Z,25.49
2019-03-22T03:59:41.040Z,25.47
2019-03-22T04:00:42.631Z,25.45
2019-03-22T04:01:44.222Z,25.44
2019-03-22T04:02:45.734Z,25.42
2019-03-22T04:03:47.213Z,25.43
2019-03-22T04:04:48.625Z,25.28
2019-03-22T04:05:51.002Z,25.35
2019-03-22T04:06:52.395Z,25.32
2019-03-22T04:07:53.775Z,25.31
2019-03-22T04:08:55.169Z,25.32
2019-03-22T04:09:56.545Z,25.42
2019-03-22T04:10:58.063Z,25.37
2019-03-22T04:11:59.480Z,25.30
2019-03-22T04:13:00.997Z,25.32
2019-03-22T04:14:03.397Z,25.35
2019-03-22T04:15:05.098Z,25.31
2019-03-22T04:16:06.472Z,25.36
2019-03-22T04:17:07.876Z,25.41
2019-03-22T04:18:09.249Z,25.41
2019-03-22T04:19:13.864Z,25.40
2019-03-22T04:20:15.262Z,25.43
2019-03-22T04:21:16.673Z,25.42
2019-03-22T04:22:18.087Z,25.40
2019-03-22T04:23:19.521Z,25.27
2019-03-22T04:24:20.935Z,25.34
2019-03-22T04:25:22.406Z,25.33
2019-03-22T04:26:23.812Z,25.36
2019-03-22T04:27:25.216Z,25.35
2019-03-22T04:28:26.586Z,25.41
2019-03-22T04:29:28.092Z,25.53
2019-03-22T04:30:29.478Z,25.63
2019-03-22T04:31:30.861Z,25.60
2019-03-22T04:32:32.317Z,25.49
2019-03-22T04:33:33.693Z,25.47
2019-03-22T04:34:35.099Z,25.48
2019-03-22T04:35:36.488Z,25.42
2019-03-22T04:36:37.878Z,25.44
2019-03-22T04:37:39.375Z,25.45
2019-03-22T04:38:40.810Z,25.36
2019-03-22T04:39:42.200Z,25.42
2019-03-22T04:40:43.599Z,25.50
2019-03-22T04:41:44.976Z,25.41
2019-03-22T04:42:46.373Z,25.34
2019-03-22T04:43:47.745Z,25.31
2019-03-22T04:44:49.138Z,25.40
2019-03-22T04:45:51.832Z,25.45
2019-03-22T04:46:53.628Z,25.43
2019-03-22T04:48:07.844Z,25.37
2019-03-22T04:49:10.532Z,25.44
2019-03-22T04:50:12.393Z,25.38
2019-03-22T04:51:13.996Z,25.43
2019-03-22T04:52:17.871Z,25.44
2019-03-22T04:53:22.211Z,25.36
2019-03-22T04:54:25.553Z,25.34
2019-03-22T04:55:27.646Z,25.34
2019-03-22T04:56:31.047Z,25.33
2019-03-22T04:57:33.819Z,25.46
2019-03-22T04:58:38.900Z,25.42
2019-03-22T04:59:42.789Z,25.45
2019-03-22T05:00:44.777Z,25.43
2019-03-22T05:01:48.992Z,25.36
2019-03-22T05:02:50.673Z,25.40
2019-03-22T05:03:52.087Z,25.39
2019-03-22T05:04:53.989Z,25.44
2019-03-22T05:05:57.497Z,25.48
2019-03-22T05:06:59.093Z,25.44
2019-03-22T05:08:00.565Z,25.44
2019-03-22T05:09:04.163Z,25.41
2019-03-22T05:10:07.531Z,25.48
2019-03-22T05:11:11.223Z,25.41
2019-03-22T05:12:16.212Z,25.46
2019-03-22T05:13:19.232Z,25.46
2019-03-22T05:14:21.427Z,25.40
2019-03-22T05:15:22.932Z,25.40
2019-03-22T05:16:24.739Z,25.43
2019-03-22T05:17:26.332Z,25.42
2019-03-22T05:18:31.000Z,25.41
2019-03-22T05:19:35.999Z,25.34
2019-03-22T05:20:39.175Z,25.39
2019-03-22T05:21:41.168Z,25.40
2019-03-22T05:22:44.758Z,25.39
2019-03-22T05:23:47.668Z,25.29
2019-03-22T05:24:49.874Z,25.31
2019-03-22T05:25:54.584Z,25.32
2019-03-22T05:26:57.888Z,25.32
2019-03-22T05:28:01.582Z,25.36
2019-03-22T05:29:05.063Z,25.35
2019-03-22T05:30:07.956Z,25.28
2019-03-22T05:31:12.931Z,25.28
2019-03-22T05:32:15.108Z,25.25
2019-03-22T05:33:16.553Z,25.29
2019-03-22T05:34:17.915Z,25.34
2019-03-22T05:35:19.289Z,25.27
2019-03-22T05:36:21.177Z,25.29
2019-03-22T05:37:22.670Z,25.29
2019-03-22T05:38:24.152Z,25.35
2019-03-22T05:39:25.651Z,25.36
2019-03-22T05:40:27.032Z,25.31
2019-03-22T05:41:28.425Z,25.25
2019-03-22T05:42:29.845Z,25.30
2019-03-22T05:43:31.240Z,25.25
2019-03-22T05:44:32.808Z,25.31
2019-03-22T05:45:34.189Z,25.20
2019-03-22T05:46:35.584Z,25.12
2019-03-22T05:47:38.084Z,25.17
2019-03-22T05:48:39.458Z,25.16
2019-03-22T05:49:40.857Z,25.22
2019-03-22T05:50:42.247Z,25.27
2019-03-22T05:51:43.654Z,25.27
2019-03-22T05:52:45.044Z,25.34
2019-03-22T05:53:46.532Z,25.32
2019-03-22T05:54:47.921Z,25.34
2019-03-22T05:55:49.484Z,25.35
2019-03-22T05:56:50.975Z,25.23
2019-03-22T05:57:52.374Z,25.24
2019-03-22T05:58:53.762Z,25.22
2019-03-22T05:59:55.283Z,25.35
2019-03-22T06:00:56.760Z,25.30
2019-03-22T06:01:58.155Z,25.31
2019-03-22T06:02:59.556Z,25.35
2019-03-22T06:04:00.932Z,25.36
2019-03-22T06:05:04.335Z,25.36
2019-03-22T06:06:05.710Z,25.37
2019-03-22T06:07:07.122Z,25.34
2019-03-22T06:08:08.516Z,25.32
2019-03-22T06:09:09.927Z,25.25
2019-03-22T06:10:11.428Z,25.24
2019-03-22T06:11:12.837Z,25.24
2019-03-22T06:12:14.249Z,25.20
2019-03-22T06:13:15.666Z,25.05
2019-03-22T06:14:17.128Z,24.97
2019-03-22T06:15:18.536Z,24.86
2019-03-22T06:16:19.922Z,24.77
2019-03-22T06:17:21.313Z,24.76
2019-03-22T06:18:22.801Z,24.74
2019-03-22T06:19:24.212Z,24.67
2019-03-22T06:20:25.617Z,24.52
2019-03-22T06:21:27.024Z,24.42
2019-03-22T06:22:28.441Z,24.34
2019-03-22T06:23:29.872Z,24.32
2019-03-22T06:24:31.248Z,24.27
2019-03-22T06:25:32.653Z,24.14
2019-03-22T06:26:34.512Z,24.12
2019-03-22T06:27:35.893Z,24.01
2019-03-22T06:28:37.303Z,23.90
2019-03-22T06:29:38.692Z,23.84
2019-03-22T06:30:40.177Z,23.69
2019-03-22T06:31:41.572Z,23.63
2019-03-22T06:32:42.966Z,23.56
2019-03-22T06:33:44.347Z,23.51
2019-03-22T06:34:45.724Z,23.38
2019-03-22T06:35:47.122Z,23.37
2019-03-22T06:36:48.496Z,23.31
2019-03-22T06:37:49.896Z,23.24
2019-03-22T06:38:51.286Z,23.17
2019-03-22T06:39:52.700Z,23.14
2019-03-22T06:40:55.112Z,23.04
2019-03-22T06:41:56.522Z,22.98
2019-03-22T06:42:58.036Z,23.07
2019-03-22T06:43:59.552Z,23.03
2019-03-22T06:45:01.028Z,22.95
2019-03-22T06:46:02.424Z,22.83
2019-03-22T06:47:03.792Z,22.77
2019-03-22T06:48:05.192Z,22.71
2019-03-22T06:49:06.599Z,22.60
2019-03-22T06:50:08.001Z,22.57
2019-03-22T06:51:09.409Z,22.55
2019-03-22T06:52:10.833Z,22.48
2019-03-22T06:53:12.253Z,22.52
2019-03-22T06:54:13.827Z,22.48
2019-03-22T06:55:15.204Z,22.42
2019-03-22T06:56:16.588Z,22.45
2019-03-22T06:57:18.055Z,22.41
2019-03-22T06:58:19.426Z,22.44
2019-03-22T06:59:20.820Z,22.41
2019-03-22T07:00:22.311Z,22.38
2019-03-22T07:01:23.696Z,22.36
2019-03-22T07:02:25.101Z,22.36
2019-03-22T07:03:26.522Z,22.39
2019-03-22T07:04:27.925Z,22.40
2019-03-22T07:05:29.302Z,22.36
2019-03-22T07:06:30.823Z,22.34
2019-03-22T07:07:32.199Z,22.42
2019-03-22T07:08:33.613Z,22.42
2019-03-22T07:09:35.117Z,22.39
2019-03-22T07:10:36.736Z,22.40
2019-03-22T07:11:38.248Z,22.37
2019-03-22T07:12:39.658Z,22.62
2019-03-22T07:13:41.069Z,23.02
2019-03-22T07:14:42.469Z,23.23
2019-03-22T07:15:43.853Z,23.00
2019-03-22T07:16:45.354Z,22.69
2019-03-22T07:17:46.829Z,22.59
2019-03-22T07:18:49.233Z,22.41
2019-03-22T07:19:50.619Z,22.42
2019-03-22T07:20:52.034Z,22.33
2019-03-22T07:21:53.443Z,22.30
2019-03-22T07:22:54.848Z,22.31
2019-03-22T07:23:56.372Z,22.35
2019-03-22T07:24:58.213Z,22.40
2019-03-22T07:25:59.683Z,22.38
2019-03-22T07:27:01.073Z,22.36
2019-03-22T07:28:03.524Z,22.41
2019-03-22T07:29:04.904Z,22.39
2019-03-22T07:30:18.682Z,22.39
2019-03-22T07:31:13.304Z,22.41
2019-03-22T07:32:14.690Z,22.44
2019-03-22T07:33:16.077Z,22.52
2019-03-22T07:34:18.571Z,22.44
2019-03-22T07:35:19.976Z,22.38
2019-03-22T07:36:21.348Z,22.39
2019-03-22T07:37:22.748Z,22.40
2019-03-22T07:38:24.716Z,22.42
2019-03-22T07:39:26.121Z,22.41
2019-03-22T07:40:27.504Z,22.43
2019-03-22T07:41:28.890Z,22.39
2019-03-22T07:42:30.284Z,22.36
2019-03-22T07:43:31.668Z,22.37
2019-03-22T07:44:33.062Z,22.41
2019-03-22T07:45:34.459Z,22.48
2019-03-22T07:46:35.834Z,22.45
2019-03-22T07:47:37.320Z,22.52
2019-03-22T07:48:38.693Z,22.48
2019-03-22T07:49:40.096Z,22.48
2019-03-22T07:50:41.481Z,22.45
2019-03-22T07:51:42.874Z,22.48
2019-03-22T07:52:44.262Z,22.56
2019-03-22T07:53:45.649Z,22.49
2019-03-22T07:54:47.039Z,22.59
2019-03-22T07:55:48.553Z,22.54
2019-03-22T07:56:49.937Z,22.45
2019-03-22T07:57:51.335Z,22.49
2019-03-22T07:58:52.886Z,22.42
2019-03-22T07:59:54.279Z,22.47
2019-03-22T08:00:55.691Z,22.44
2019-03-22T08:01:57.175Z,22.38
2019-03-22T08:02:58.587Z,22.49
2019-03-22T08:04:00.998Z,22.59
2019-03-22T08:05:04.110Z,22.61
2019-03-22T08:06:05.554Z,22.49
2019-03-22T08:07:07.036Z,22.46
2019-03-22T08:08:08.434Z,22.50
2019-03-22T08:09:09.807Z,22.49
2019-03-22T08:10:11.401Z,22.56
2019-03-22T08:11:12.911Z,22.49
2019-03-22T08:12:14.399Z,22.43
2019-03-22T08:13:15.914Z,22.42
2019-03-22T08:14:17.328Z,22.54
2019-03-22T08:15:26.781Z,22.46
2019-03-22T08:16:28.414Z,22.52
2019-03-22T08:17:29.775Z,22.50
2019-03-22T08:18:31.305Z,22.49
2019-03-22T08:19:32.671Z,22.47
2019-03-22T08:20:34.100Z,22.49
2019-03-22T08:21:35.561Z,22.58
2019-03-22T08:22:37.064Z,22.58
2019-03-22T08:23:38.490Z,22.63
2019-03-22T08:24:39.885Z,22.54
2019-03-22T08:25:43.480Z,22.51
2019-03-22T08:26:44.601Z,22.53
2019-03-22T08:27:46.086Z,22.54
2019-03-22T08:28:47.500Z,22.56
2019-03-22T08:29:49.032Z,22.53
2019-03-22T08:30:50.540Z,22.48
2019-03-22T08:31:51.905Z,22.52
2019-03-22T08:32:53.294Z,22.47
2019-03-22T08:33:54.677Z,22.49
2019-03-22T08:34:56.168Z,22.48
2019-03-22T08:35:57.556Z,22.55
2019-03-22T08:36:58.949Z,22.60
2019-03-22T08:38:00.335Z,22.59
2019-03-22T08:39:06.247Z,22.63
2019-03-22T08:40:07.829Z,22.64
2019-03-22T08:41:09.201Z,22.59
2019-03-22T08:42:10.593Z,22.66
2019-03-22T08:43:11.956Z,22.66
2019-03-22T08:44:13.343Z,22.69
2019-03-22T08:45:14.840Z,22.74
2019-03-22T08:46:16.350Z,22.76
2019-03-22T08:47:17.728Z,22.76
2019-03-22T08:48:19.216Z,22.81
2019-03-22T08:49:20.778Z,22.82
2019-03-22T08:50:22.172Z,22.80
2019-03-22T08:51:23.582Z,22.79
2019-03-22T08:52:24.967Z,22.87
2019-03-22T08:53:26.349Z,22.90
2019-03-22T08:54:27.759Z,22.89
2019-03-22T08:55:29.121Z,22.95
2019-03-22T08:56:30.514Z,22.97
2019-03-22T08:57:31.916Z,23.00
2019-03-22T08:58:34.291Z,22.97
2019-03-22T08:59:35.717Z,22.93
2019-03-22T09:00:39.699Z,22.86
2019-03-22T09:01:40.446Z,22.89
2019-03-22T09:02:41.853Z,22.97
2019-03-22T09:03:43.395Z,22.87
2019-03-22T09:04:44.928Z,22.83
2019-03-22T09:05:46.346Z,22.89
2019-03-22T09:06:47.754Z,22.95
2019-03-22T09:07:49.175Z,22.98
2019-03-22T09:08:50.634Z,22.93
2019-03-22T09:09:52.093Z,22.75
2019-03-22T09:10:53.566Z,22.86
2019-03-22T09:11:54.911Z,22.90
2019-03-22T09:12:56.473Z,22.88
2019-03-22T09:13:57.914Z,22.87
2019-03-22T09:14:59.324Z,22.92
2019-03-22T09:16:00.733Z,22.97
2019-03-22T09:17:02.183Z,22.98
2019-03-22T09:18:03.582Z,23.04
2019-03-22T09:19:04.944Z,23.02
2019-03-22T09:20:08.828Z,22.97
2019-03-22T09:21:10.231Z,22.95
2019-03-22T09:22:11.759Z,22.97
2019-03-22T09:23:13.196Z,22.91
2019-03-22T09:24:14.627Z,22.97
2019-03-22T09:25:16.085Z,22.88
2019-03-22T09:26:19.931Z,22.88
2019-03-22T09:27:20.869Z,22.84
2019-03-22T09:28:22.255Z,22.88
2019-03-22T09:29:23.795Z,22.81
2019-03-22T09:30:25.156Z,22.89
2019-03-22T09:31:26.660Z,22.79
2019-03-22T09:32:28.067Z,22.83
2019-03-22T09:33:29.638Z,22.82
2019-03-22T09:34:33.988Z,22.75
2019-03-22T09:35:34.311Z,22.83
2019-03-22T09:36:35.708Z,22.79
2019-03-22T09:37:37.108Z,22.87
2019-03-22T09:38:38.601Z,22.81
2019-03-22T09:39:40.275Z,22.89
2019-03-22T09:40:41.747Z,22.86
2019-03-22T09:41:43.182Z,22.87
2019-03-22T09:42:44.555Z,22.92
2019-03-22T09:43:45.927Z,22.91
2019-03-22T09:44:47.610Z,22.94
2019-03-22T09:45:49.005Z,22.95
2019-03-22T09:46:50.413Z,22.92
2019-03-22T09:47:51.883Z,22.89
2019-03-22T09:48:53.408Z,22.88
2019-03-22T09:49:54.785Z,22.96
2019-03-22T09:50:56.275Z,22.97
2019-03-22T09:51:57.725Z,23.00
2019-03-22T09:52:59.218Z,23.05
2019-03-22T09:54:00.679Z,23.09
2019-03-22T09:55:12.614Z,23.15
2019-03-22T09:56:05.532Z,23.17
2019-03-22T09:57:06.887Z,23.15
2019-03-22T09:58:08.354Z,23.18
2019-03-22T09:59:09.777Z,23.17
2019-03-22T10:00:18.135Z,23.21
2019-03-22T10:01:23.965Z,23.15
2019-03-22T10:02:23.087Z,23.21
2019-03-22T10:03:24.553Z,23.21
2019-03-22T10:04:26.066Z,23.29
2019-03-22T10:05:27.411Z,23.27
2019-03-22T10:06:28.822Z,23.25
2019-03-22T10:07:30.188Z,23.27
2019-03-22T10:08:31.685Z,23.29
2019-03-22T10:09:33.176Z,23.30
2019-03-22T10:10:34.599Z,23.31
2019-03-22T10:11:36.003Z,23.29
2019-03-22T10:12:37.531Z,23.31
2019-03-22T10:13:39.044Z,23.28
2019-03-22T10:14:40.443Z,23.27
2019-03-22T10:15:41.874Z,23.23
2019-03-22T10:16:43.324Z,23.22
2019-03-22T10:17:44.701Z,23.21
2019-03-22T10:18:46.137Z,23.22
2019-03-22T10:19:47.638Z,23.26
2019-03-22T10:20:49.107Z,23.20
2019-03-22T10:21:50.661Z,23.27
2019-03-22T10:22:52.327Z,23.31
2019-03-22T10:23:53.823Z,23.26
2019-03-22T10:24:55.248Z,23.28
2019-03-22T10:25:56.735Z,23.26
2019-03-22T10:26:58.091Z,23.31
2019-03-22T10:27:59.540Z,23.29
2019-03-22T10:29:01.044Z,23.27
2019-03-22T10:30:06.168Z,23.29
2019-03-22T10:31:07.946Z,23.26
2019-03-22T10:32:09.441Z,23.27
2019-03-22T10:33:22.156Z,23.29
2019-03-22T10:34:14.198Z,23.24
2019-03-22T10:35:25.567Z,23.21
2019-03-22T10:36:19.962Z,23.28
2019-03-22T10:37:21.391Z,23.26
2019-03-22T10:38:31.012Z,23.26
2019-03-22T10:39:26.042Z,23.30
2019-03-22T10:40:27.456Z,23.34
2019-03-22T10:41:28.823Z,23.35
2019-03-22T10:42:30.270Z,23.39
2019-03-22T10:43:31.698Z,23.42
2019-03-22T10:44:33.229Z,23.37
2019-03-22T10:45:34.760Z,23.41
2019-03-22T10:46:36.235Z,23.41
2019-03-22T10:47:37.695Z,23.44
2019-03-22T10:48:40.818Z,23.44
2019-03-22T10:49:42.520Z,23.43
2019-03-22T10:50:43.970Z,23.45
2019-03-22T10:51:56.230Z,23.47
2019-03-22T10:52:48.712Z,23.47
2019-03-22T10:53:50.107Z,23.45
2019-03-22T10:54:51.583Z,23.46
2019-03-22T10:55:52.976Z,23.48
2019-03-22T10:56:54.356Z,23.45
2019-03-22T10:57:55.766Z,23.44
2019-03-22T10:58:57.142Z,23.44
2019-03-22T10:59:58.537Z,23.48
2019-03-22T11:00:59.930Z,23.47
2019-03-22T11:02:03.562Z,23.51
2019-03-22T11:03:04.977Z,23.54
2019-03-22T11:05:09.082Z,23.54
2019-03-22T11:06:10.497Z,23.53
2019-03-22T11:07:11.877Z,23.48
2019-03-22T11:08:13.275Z,23.43
2019-03-22T11:09:14.655Z,23.37
2019-03-22T11:10:16.050Z,23.33
2019-03-22T11:11:17.542Z,23.29
2019-03-22T11:12:18.984Z,23.28
2019-03-22T11:13:20.528Z,23.25
2019-03-22T11:14:21.982Z,23.18
2019-03-22T11:15:24.047Z,23.13
2019-03-22T11:16:25.645Z,23.10
2019-03-22T11:17:28.063Z,23.03
2019-03-22T11:18:36.978Z,23.04
2019-03-22T11:19:32.767Z,22.99
2019-03-22T11:20:34.225Z,22.94
2019-03-22T11:21:35.659Z,22.95
2019-03-22T11:22:37.100Z,22.94
2019-03-22T11:23:38.520Z,22.85
2019-03-22T11:24:40.057Z,22.86
2019-03-22T11:25:41.593Z,22.94
2019-03-22T11:26:43.023Z,22.83
2019-03-22T11:27:44.424Z,22.85
2019-03-22T11:28:45.850Z,22.86
2019-03-22T11:29:47.256Z,22.83
2019-03-22T11:30:48.791Z,22.87
2019-03-22T11:31:50.200Z,22.87
2019-03-22T11:32:52.217Z,22.86
2019-03-22T11:33:53.629Z,22.80
2019-03-22T11:34:55.122Z,22.76
2019-03-22T11:35:56.518Z,22.75
2019-03-22T11:36:58.045Z,22.78
2019-03-22T11:37:59.548Z,22.79
2019-03-22T11:39:00.977Z,22.84
2019-03-22T11:40:07.527Z,22.82
2019-03-22T11:41:08.954Z,22.81
2019-03-22T11:42:10.468Z,22.84
2019-03-22T11:43:11.878Z,22.74
2019-03-22T11:44:13.277Z,22.76
2019-03-22T11:45:19.127Z,22.75
2019-03-22T11:46:20.509Z,22.81
2019-03-22T11:47:21.902Z,22.83
2019-03-22T11:48:23.369Z,22.84
2019-03-22T11:49:24.862Z,22.81
2019-03-22T11:50:26.336Z,22.81
2019-03-22T11:51:27.928Z,22.81
2019-03-22T11:52:29.462Z,22.91
2019-03-22T11:53:30.851Z,22.94
2019-03-22T11:54:33.342Z,22.86
2019-03-22T11:55:34.724Z,22.81
2019-03-22T11:56:36.112Z,22.75
2019-03-22T11:57:37.515Z,22.76
2019-03-22T11:58:38.987Z,22.78
2019-03-22T11:59:40.386Z,22.81
2019-03-22T12:00:41.772Z,22.75
2019-03-22T12:01:43.166Z,22.72
2019-03-22T12:02:44.669Z,22.82
2019-03-22T12:03:46.083Z,23.14
2019-03-22T12:04:47.551Z,23.48
2019-03-22T12:05:49.005Z,23.75
2019-03-22T12:06:50.391Z,23.96
2019-03-22T12:07:51.784Z,24.11
2019-03-22T12:08:53.274Z,23.97
2019-03-22T12:09:54.656Z,23.49
2019-03-22T12:10:56.041Z,23.09
2019-03-22T12:11:58.431Z,22.90
2019-03-22T12:12:59.918Z,22.67
2019-03-22T12:14:01.391Z,22.63
2019-03-22T12:15:05.196Z,22.62
2019-03-22T12:16:06.574Z,22.57
2019-03-22T12:17:07.970Z,22.55
2019-03-22T12:18:09.360Z,22.56
2019-03-22T12:19:10.779Z,22.58
2019-03-22T12:20:17.737Z,22.48
2019-03-22T12:21:19.439Z,22.46
2019-03-22T12:22:20.860Z,22.56
2019-03-22T12:23:22.271Z,22.48
2019-03-22T12:24:23.644Z,22.43
2019-03-22T12:25:25.241Z,22.47
2019-03-22T12:26:26.610Z,22.47
2019-03-22T12:27:36.249Z,22.41
2019-03-22T12:28:31.316Z,22.43
2019-03-22T12:29:34.302Z,22.41
2019-03-22T12:30:35.739Z,22.52
2019-03-22T12:31:37.148Z,22.63
2019-03-22T12:32:38.865Z,22.61
2019-03-22T12:33:40.266Z,22.57
2019-03-22T12:34:41.644Z,22.51
2019-03-22T12:35:43.029Z,22.58
2019-03-22T12:36:44.485Z,22.56
2019-03-22T12:37:45.865Z,22.52
2019-03-22T12:38:47.247Z,22.52
2019-03-22T12:39:48.750Z,22.57
2019-03-22T12:40:50.150Z,22.54
2019-03-22T12:41:51.663Z,22.51
2019-03-22T12:42:53.073Z,22.55
2019-03-22T12:43:55.598Z,22.51
2019-03-22T12:44:57.000Z,22.50
2019-03-22T12:45:58.520Z,22.48
2019-03-22T12:46:59.923Z,22.55
2019-03-22T12:48:01.448Z,22.53
2019-03-22T12:49:03.951Z,22.52
2019-03-22T12:50:07.475Z,22.39
2019-03-22T12:51:08.886Z,22.45
2019-03-22T12:52:10.296Z,22.50
2019-03-22T12:53:11.711Z,22.57
2019-03-22T12:54:13.134Z,22.47
2019-03-22T12:55:14.727Z,22.53
2019-03-22T12:56:16.154Z,22.52
2019-03-22T12:57:17.652Z,22.58
2019-03-22T12:58:19.071Z,22.60
2019-03-22T12:59:20.502Z,22.57
2019-03-22T13:00:23.018Z,22.53
2019-03-22T13:01:24.437Z,22.55
2019-03-22T13:02:25.848Z,22.48
2019-03-22T13:03:27.261Z,22.53
2019-03-22T13:04:28.695Z,22.56
2019-03-22T13:05:30.122Z,22.55
2019-03-22T13:06:31.546Z,22.59
2019-03-22T13:07:33.043Z,22.55
2019-03-22T13:08:34.444Z,22.54
2019-03-22T13:09:35.874Z,22.51
2019-03-22T13:10:37.285Z,22.57
2019-03-22T13:11:38.704Z,22.62
2019-03-22T13:12:40.105Z,22.58
2019-03-22T13:13:41.528Z,22.51
2019-03-22T13:14:42.947Z,22.50
2019-03-22T13:15:44.353Z,22.46